Friday, November 28, 2014
00:14 UTC
  |  Log In   |  Register Free
Airport Search:

Coffeyville Municipal Airport
(KCFV)

Coffeyville Municipal Airport Diagram
No Airport Diagram Available

FAA data valid effective November 13, 2014 - January 08, 2015 (unless otherwise noted).

 
 
 
 
 
 
 
 
 
 
 
 
 
 

Current Aviation Weather for Coffeyville Municipal Airport (KCFV)

The most recent METAR observation for KCFV was updated at: 0010
METAR Summary (Translated METAR)
KCFV
272352Z AUTO 14007KT 10SM CLR 03/M05 A3037 RMK AO2 SLP292 T00331050 10072 20022 56016
KIDP
272355Z AUTO 00000KT 10SM CLR 02/M05 A3036 RMK AO2
(10.6 nm NW from KCFV)
KPPF
272252Z AUTO 15005KT 10SM CLR 05/M06 A3039 RMK AO2 SLP298 T00501061
(14.6 nm NE from KCFV)
TAF
No TAF information found within 50 nm of KCFV
  Airport Weather Conditions for KCFV

 Current Weather at CFV
42° F
Fair
South winds at 6.9 mph
CFV NOAA Radar

Pressure: 30.39 in
Humidity: 45%
Wind: South at 6.9 MPH (6 KT)
Dew Point: 21.9°F
Visibility: 10.00 mi


Airport Weather Forecast for KCFV

Translated METAR and TAF for KCFV
Translated METAR for KCFV (0009 UTC 28 November 2014)
found at http://aviationweather.gov/adds/metars/
 
METAR text: KCFV 272352Z AUTO 14007KT 10SM CLR 03/M05 A3037 RMK AO2 SLP292 T00331050 10072 20022 56016
Conditions at: KCFV (COFFEYVILLE , KS, US) observed 2352 UTC 27 November 2014
Temperature: 3.3°C (38°F)
Dewpoint: -5.0°C (23°F) [RH = 54%]
Pressure (altimeter): 30.37 inches Hg (1028.5 mb)
[Sea-level pressure: 1029.2 mb]
Winds: from the SE (140 degrees) at 8 MPH (7 knots; 3.6 m/s)
Visibility: 10 or more miles (16+ km)
Ceiling: at least 12,000 feet AGL
Clouds: sky clear below 12,000 feet AGL
Weather: automated observation with no human augmentation;
there may or may not be significant weather present at this time
Translated TAF for KCFV

There is no translated TAF available for this airport

Find All Airport Services Find A Hotel Find A Rental Car Find A Golf Course Find A Restaurant $100 Hamburger



FBO's on the Field
FBO Company Facility Photos Services Transportation Aviation Fuel Prices: Prices include tax
Catering Weather Repair Courtesy Rental Type 100LL JetA JetA+ MOGAS 8087
 
Coffeyville Aircraft, Inc

This FBO has not yet been rated
FS:Phillips 66
Last Updated: Oct-27
Login to update fuel prices
SS:
Contact Coffeyville Aircraft, IncMore FBO Information
 
Add another FBO Facility Photos Catering Weather Repair Courtesy Rental Type 100LL JetA JetA+ MOGAS 8087
Services Transportation Aviation Fuel Prices: Prices include tax


model-print
model-print
model-print
model-print